Terminal Aerodrome Forecast
Issued by NWS Billings, MT

Home | Current Version | Previous Version | Graphics & Text | Print | Product List | Glossary On
Versions: 1 2 3 4 5 6 7 8 9 10 11 12 13 14 15 16 17 18 19 20 21 22 23
000
FTUS45 KBYZ 151730
TAFMLS
TAF
KMLS 151730Z 1518/1618 33020G27KT P6SM VCSH BKN035
     FM152300 33018G28KT 6SM -RA OVC040
     FM160900 33012KT P6SM SCT040 BKN080=

USA.gov is the U.S. government's official web portal to all federal, state and local government web resources and services.